Time;durP1;ratioP1;P1;durP2;ratioP2;P2;SDS_P1;SDS_P2;PMS_P1;PMS_P2;Temp;Humidity;BMP_temperature;BMP_pressure;BME280_temperature;BME280_humidity;BME280_pressure;Samples;Min_cycle;Max_cycle;Signal;HPM_P1;HPM_P2
2023/01/21 00:00:00;;;;;;;28.98;11.45;;;;;;;1.10;75.99;102926.31;4945617;29;20046;-80
2023/01/21 00:02:27;;;;;;;29.75;13.48;;;;;;;1.10;75.97;102922.03;4948723;28;20050;-80
2023/01/21 00:04:54;;;;;;;30.48;11.68;;;;;;;1.03;75.88;102914.78;4947008;29;20579;-80
2023/01/21 00:07:21;;;;;;;29.83;11.55;;;;;;;1.05;75.34;102910.63;4951007;28;20047;-80
2023/01/21 00:09:48;;;;;;;32.67;12.30;;;;;;;1.10;75.32;102919.47;4955226;28;20051;-80
2023/01/21 00:12:15;;;;;;;32.28;12.73;;;;;;;1.16;76.05;102923.19;4943303;28;20528;-80
2023/01/21 00:14:43;;;;;;;30.33;11.75;;;;;;;1.17;75.68;102931.00;4950406;28;20053;-80
2023/01/21 00:17:10;;;;;;;29.23;12.48;;;;;;;1.18;75.78;102926.72;4944593;29;20047;-80
2023/01/21 00:19:37;;;;;;;27.10;12.32;;;;;;;1.12;75.70;102917.88;4948359;28;20050;-80
2023/01/21 00:22:04;;;;;;;29.40;12.23;;;;;;;1.21;75.76;102934.63;4948664;29;20058;-81
2023/01/21 00:24:31;;;;;;;30.38;11.75;;;;;;;1.19;76.00;102928.50;4947650;28;20047;-80
2023/01/21 00:26:58;;;;;;;30.42;11.35;;;;;;;1.23;76.08;102938.16;4951165;28;20057;-80
2023/01/21 00:29:25;;;;;;;26.85;11.10;;;;;;;1.23;76.08;102940.75;4945255;28;20047;-80
2023/01/21 00:31:53;;;;;;;26.55;11.15;;;;;;;1.23;75.57;102951.03;4949886;28;20054;-80
2023/01/21 00:34:20;;;;;;;25.05;11.02;;;;;;;1.12;75.69;102935.88;4947387;28;20488;-79
2023/01/21 00:36:47;;;;;;;28.13;11.77;;;;;;;1.25;76.28;102952.91;4946781;29;20422;-80
2023/01/21 00:39:14;;;;;;;23.75;10.00;;;;;;;1.26;76.02;102952.09;4946220;28;20046;-80
2023/01/21 00:41:41;;;;;;;25.73;10.85;;;;;;;1.27;75.96;102952.97;4951566;28;20057;-80
2023/01/21 00:44:08;;;;;;;25.17;11.95;;;;;;;1.27;75.76;102956.41;4951338;28;20528;-80
2023/01/21 00:46:34;;;;;;;25.92;10.98;;;;;;;1.27;76.06;102956.41;4951582;29;20043;-80
2023/01/21 00:49:03;;;;;;;21.85;10.10;;;;;;;1.28;76.01;102955.63;4953268;28;20047;-80
2023/01/21 00:51:30;;;;;;;24.05;11.38;;;;;;;1.29;75.59;102962.56;4950936;28;20051;-80
2023/01/21 00:53:57;;;;;;;16.33;8.27;;;;;;;1.29;76.38;102962.56;4952979;29;20055;-80
2023/01/21 00:56:24;;;;;;;16.52;9.10;;;;;;;1.28;75.98;102972.75;4952654;29;20058;-80
2023/01/21 00:58:51;;;;;;;16.60;9.35;;;;;;;1.30;76.37;102977.19;4950837;28;20401;-80
2023/01/21 01:01:20;;;;;;;17.10;9.65;;;;;;;1.28;75.72;102970.19;4950096;28;20039;-80
2023/01/21 01:03:48;;;;;;;17.45;10.15;;;;;;;1.32;75.97;102978.16;4947730;28;20050;-81
2023/01/21 01:06:19;;;;;;;17.63;9.20;;;;;;;1.33;76.08;102986.78;4948126;28;20122;-80
2023/01/21 01:08:48;;;;;;;15.85;9.63;;;;;;;1.30;75.61;102981.44;4949973;28;20055;-80
2023/01/21 01:11:16;;;;;;;14.63;8.63;;;;;;;1.33;75.73;102989.34;4947662;29;20381;-80
2023/01/21 01:13:43;;;;;;;13.30;7.85;;;;;;;1.34;75.87;102991.13;4954111;28;20058;-79
2023/01/21 01:16:12;;;;;;;13.82;7.60;;;;;;;1.35;76.13;102990.31;4945593;28;20044;-80
2023/01/21 01:18:39;;;;;;;10.98;6.85;;;;;;;1.33;75.35;102995.38;4951523;28;20047;-80
2023/01/21 01:21:10;;;;;;;13.02;7.88;;;;;;;1.28;75.62;102994.25;4947510;29;20050;-80
2023/01/21 01:23:38;;;;;;;11.63;6.72;;;;;;;1.37;75.46;103005.84;4947350;28;20427;-80
2023/01/21 01:26:07;;;;;;;14.13;6.97;;;;;;;1.30;75.48;103002.06;4942981;28;20043;-80
2023/01/21 01:28:35;;;;;;;12.77;7.47;;;;;;;1.37;75.80;103017.06;4949172;28;20043;-80
2023/01/21 01:31:04;;;;;;;11.82;6.35;;;;;;;1.37;75.52;103011.00;4954279;28;20058;-80
2023/01/21 01:33:31;;;;;;;11.63;6.68;;;;;;;1.34;75.59;103017.75;4954804;28;20415;-80
2023/01/21 01:36:02;;;;;;;9.07;4.88;;;;;;;1.36;75.17;103015.25;4949964;28;20051;-80
2023/01/21 01:38:29;;;;;;;8.05;5.28;;;;;;;1.33;76.05;103020.25;4951140;28;20051;-80
2023/01/21 01:40:58;;;;;;;10.48;5.43;;;;;;;1.34;75.56;103022.03;4945382;29;20449;-80
2023/01/21 01:43:27;;;;;;;8.32;5.38;;;;;;;1.32;75.53;103015.91;4952886;28;20083;-80
2023/01/21 01:45:54;;;;;;;8.80;4.80;;;;;;;1.34;75.46;103027.19;4953577;28;20864;-80
2023/01/21 01:48:27;;;;;;;9.43;5.35;;;;;;;1.35;76.20;103028.94;4955556;28;20427;-80
2023/01/21 01:50:55;;;;;;;8.68;5.28;;;;;;;1.34;75.24;103032.34;4947502;29;20047;-80
2023/01/21 01:53:22;;;;;;;11.85;5.57;;;;;;;1.35;75.82;103034.97;4950849;28;20685;-80
2023/01/21 01:55:49;;;;;;;5.85;3.88;;;;;;;1.35;75.55;103045.28;4957744;29;20069;-80
2023/01/21 01:58:20;;;;;;;7.25;3.88;;;;;;;1.34;74.99;103043.53;4953508;28;20054;-80
2023/01/21 02:00:48;;;;;;;7.20;4.22;;;;;;;1.35;74.82;103050.44;4950005;28;20514;-80
2023/01/21 02:06:00;;;;;;;6.05;3.20;;;;;;;1.34;75.44;103052.94;4948217;29;20419;-80
2023/01/21 02:08:31;;;;;;;6.72;3.88;;;;;;;1.32;75.41;103057.97;4950401;28;20061;-80
2023/01/21 02:10:59;;;;;;;6.32;3.42;;;;;;;1.34;75.67;103068.38;4951701;29;20411;-80
2023/01/21 02:13:32;;;;;;;6.18;3.42;;;;;;;1.31;75.30;103065.66;4953409;28;20385;-81
2023/01/21 02:16:11;;;;;;;6.45;3.47;;;;;;;1.34;75.09;103070.97;4945509;28;20051;-80
2023/01/21 02:18:48;;;;;;;6.72;3.65;;;;;;;1.33;75.24;103067.47;4954874;28;20053;-80
2023/01/21 02:21:53;;;;;;;7.07;3.40;;;;;;;1.31;75.07;103073.38;4952707;28;20043;-80
2023/01/21 02:24:53;;;;;;;7.60;3.60;;;;;;;1.31;74.84;103074.25;4951701;28;20040;-79
2023/01/21 02:27:35;;;;;;;5.47;3.40;;;;;;;1.30;75.24;103085.31;4951779;28;20043;-80
2023/01/21 02:30:37;;;;;;;8.60;4.30;;;;;;;1.27;74.95;103082.59;4945819;28;20515;-80
2023/01/21 02:33:38;;;;;;;6.88;3.50;;;;;;;1.29;75.35;103085.25;4951769;28;20712;-80
2023/01/21 02:36:15;;;;;;;6.07;3.97;;;;;;;1.30;75.42;103089.59;4955532;28;20050;-80
2023/01/21 02:38:51;;;;;;;7.22;3.72;;;;;;;1.20;75.28;103077.91;4954391;28;20078;-79
2023/01/21 02:41:28;;;;;;;6.00;3.15;;;;;;;1.21;75.21;103082.25;4952504;28;20051;-80
2023/01/21 02:44:09;;;;;;;5.95;2.92;;;;;;;1.16;75.16;103082.78;4949604;28;20075;-80
2023/01/21 02:46:42;;;;;;;5.45;2.85;;;;;;;1.20;74.82;103095.03;4944349;28;20075;-80
2023/01/21 02:49:16;;;;;;;6.40;3.58;;;;;;;1.19;74.91;103094.13;4949759;29;20079;-79
2023/01/21 02:51:47;;;;;;;6.20;2.65;;;;;;;1.28;75.12;103123.00;4950585;28;20051;-80
2023/01/21 02:54:15;;;;;;;5.68;2.70;;;;;;;1.29;74.32;103126.47;4944640;28;20067;-80
2023/01/21 02:56:44;;;;;;;5.10;1.45;;;;;;;1.28;75.16;103127.22;4948776;28;20052;-80
2023/01/21 02:59:12;;;;;;;5.43;2.20;;;;;;;1.26;74.93;103141.72;4953582;28;20050;-80
2023/01/21 03:01:52;;;;;;;4.03;2.38;;;;;;;1.27;74.72;103138.34;4953624;28;20476;-80
2023/01/21 03:04:47;;;;;;;4.03;2.60;;;;;;;1.27;74.72;103138.34;4949559;28;20040;-78
2023/01/21 03:07:25;;;;;;;2.83;1.63;;;;;;;1.26;74.61;103144.31;4953721;29;20415;-80
2023/01/21 03:09:56;;;;;;;2.97;1.73;;;;;;;1.23;75.12;103137.28;4951393;29;20057;-80
2023/01/21 03:12:31;;;;;;;3.75;2.25;;;;;;;1.23;75.16;103146.72;4956020;28;20046;-80
2023/01/21 03:17:54;;;;;;;3.58;2.17;;;;;;;1.23;74.83;103150.16;4945694;28;20107;-80
2023/01/21 03:20:26;;;;;;;4.25;2.25;;;;;;;1.15;74.31;103147.94;4956715;29;20043;-80
2023/01/21 03:22:59;;;;;;;4.70;2.38;;;;;;;1.22;74.81;103162.94;4951468;28;20575;-80
2023/01/21 03:25:29;;;;;;;3.47;2.42;;;;;;;1.16;74.64;103144.56;4942487;28;20043;-72
2023/01/21 03:27:57;;;;;;;4.15;2.75;;;;;;;1.22;74.71;103165.50;4936768;28;20521;-73
2023/01/21 03:30:27;;;;;;;5.28;2.90;;;;;;;1.21;74.69;103163.75;4941916;28;20067;-72
2023/01/21 03:32:56;;;;;;;6.53;2.58;;;;;;;1.20;74.32;103173.16;4941158;28;20047;-73
2023/01/21 03:35:28;;;;;;;8.35;2.50;;;;;;;1.19;74.63;103170.47;4939992;28;20047;-73
2023/01/21 03:38:00;;;;;;;5.03;2.22;;;;;;;1.18;74.51;103174.75;4942642;28;20501;-73
2023/01/21 03:40:30;;;;;;;5.18;2.90;;;;;;;1.16;75.08;103176.34;4943893;28;20054;-72
2023/01/21 03:42:57;;;;;;;6.50;3.42;;;;;;;1.17;74.62;103175.56;4941145;29;20055;-72
2023/01/21 03:45:34;;;;;;;5.90;2.97;;;;;;;1.17;75.06;103178.13;4943967;28;20413;-72
2023/01/21 03:48:09;;;;;;;6.93;3.17;;;;;;;1.16;75.09;103181.47;4944669;28;20050;-72
2023/01/21 03:50:41;;;;;;;5.30;3.05;;;;;;;1.15;74.70;103183.97;4944002;28;20047;-73
2023/01/21 03:53:08;;;;;;;4.70;2.65;;;;;;;1.15;75.04;103184.88;4941093;28;20063;-73
2023/01/21 03:55:36;;;;;;;6.65;2.97;;;;;;;1.12;74.80;103198.44;4938885;28;20078;-72
2023/01/21 03:58:03;;;;;;;4.60;2.85;;;;;;;1.16;74.53;103206.34;4939811;28;20046;-71
2023/01/21 04:00:30;;;;;;;5.82;3.08;;;;;;;1.15;74.34;103204.56;4941337;28;20051;-71
2023/01/21 04:02:57;;;;;;;6.10;2.50;;;;;;;1.05;74.40;103192.84;4940155;28;20080;-71
2023/01/21 04:05:23;;;;;;;5.10;2.53;;;;;;;1.16;74.77;103214.94;4936712;28;20044;-71
2023/01/21 04:07:52;;;;;;;2.92;2.08;;;;;;;1.15;74.32;103214.88;4942434;28;20500;-71
2023/01/21 04:10:19;;;;;;;5.57;3.22;;;;;;;1.15;74.57;103222.59;4938276;28;20055;-72
2023/01/21 04:12:46;;;;;;;5.65;3.13;;;;;;;1.15;74.81;103222.59;4942321;28;20054;-71
2023/01/21 04:15:13;;;;;;;5.80;2.47;;;;;;;1.16;74.80;103226.94;4941484;28;20047;-72
2023/01/21 04:17:41;;;;;;;4.55;3.05;;;;;;;1.16;74.55;103232.97;4940198;28;20047;-71
2023/01/21 04:20:09;;;;;;;4.82;2.78;;;;;;;1.16;74.99;103237.22;4942278;28;20055;-71
2023/01/21 04:22:36;;;;;;;4.72;3.03;;;;;;;1.12;74.51;103229.34;4938065;28;20047;-71
2023/01/21 04:25:05;;;;;;;4.10;2.58;;;;;;;1.16;74.62;103242.38;4940799;28;20059;-71
2023/01/21 04:27:32;;;;;;;5.78;2.80;;;;;;;1.16;74.73;103243.25;4937737;28;20056;-72
2023/01/21 04:29:59;;;;;;;5.10;3.00;;;;;;;1.09;74.54;103220.53;4940010;28;20051;-71
2023/01/21 04:32:26;;;;;;;4.38;2.95;;;;;;;1.16;74.80;103243.25;4939180;28;20043;-72
2023/01/21 04:34:53;;;;;;;4.57;2.42;;;;;;;1.16;74.57;103243.25;4939338;28;20071;-72
2023/01/21 04:37:20;;;;;;;3.45;2.25;;;;;;;1.16;74.52;103252.69;4939873;28;20047;-72
2023/01/21 04:39:46;;;;;;;4.72;2.88;;;;;;;1.15;74.68;103259.53;4944183;28;20047;-71
2023/01/21 04:42:15;;;;;;;5.07;2.20;;;;;;;1.16;74.56;103262.97;4942036;28;20046;-72
2023/01/21 04:44:43;;;;;;;4.28;3.22;;;;;;;1.17;74.35;103268.25;4943317;28;20058;-71
2023/01/21 04:47:10;;;;;;;3.85;2.20;;;;;;;1.16;74.26;103257.84;4935605;28;20082;-72
2023/01/21 04:49:37;;;;;;;4.22;2.33;;;;;;;1.15;74.87;103266.38;4940428;28;20497;-72
2023/01/21 04:52:05;;;;;;;4.28;2.28;;;;;;;1.15;74.77;103267.25;4941839;29;20487;-72
2023/01/21 04:54:31;;;;;;;4.28;2.53;;;;;;;1.13;74.73;103264.56;4941126;28;20058;-71
2023/01/21 04:56:59;;;;;;;3.97;2.42;;;;;;;1.12;74.36;103275.66;4944429;29;20047;-72
2023/01/21 04:59:27;;;;;;;3.83;2.42;;;;;;;1.13;74.33;103274.84;4941378;28;20464;-71
2023/01/21 05:01:54;;;;;;;6.30;2.90;;;;;;;1.12;74.51;103273.09;4936729;28;20051;-71
2023/01/21 05:04:21;;;;;;;3.72;2.33;;;;;;;1.11;74.87;103276.47;4940658;28;20138;-71
2023/01/21 05:06:48;;;;;;;3.63;2.83;;;;;;;1.11;74.87;103284.19;4937589;28;20055;-71
2023/01/21 05:09:14;;;;;;;3.58;2.63;;;;;;;1.09;73.87;103272.91;4938168;28;20058;-72
2023/01/21 05:11:41;;;;;;;4.22;2.72;;;;;;;1.10;74.50;103279.81;4939586;28;20058;-71
2023/01/21 05:14:08;;;;;;;4.70;2.92;;;;;;;1.10;74.76;103287.56;4935271;28;20047;-71
2023/01/21 05:16:36;;;;;;;6.20;3.22;;;;;;;1.11;74.45;103291.94;4941587;28;20040;-71
2023/01/21 05:19:03;;;;;;;8.80;3.20;;;;;;;1.09;74.44;103293.50;4936661;28;20515;-71
2023/01/21 05:21:30;;;;;;;5.55;3.58;;;;;;;1.11;74.54;103309.94;4936370;28;20059;-71
2023/01/21 05:23:57;;;;;;;7.25;3.70;;;;;;;1.12;74.52;103309.13;4937884;28;20060;-75
2023/01/21 05:26:24;;;;;;;5.68;3.70;;;;;;;1.10;74.58;103315.88;4940736;28;20047;-74
2023/01/21 05:28:50;;;;;;;7.80;3.83;;;;;;;1.12;74.55;103308.25;4941601;29;20522;-74
2023/01/21 05:31:17;;;;;;;5.68;3.78;;;;;;;1.12;74.20;103316.84;4943374;28;20516;-74
2023/01/21 05:33:46;;;;;;;8.05;3.45;;;;;;;1.12;75.19;103314.28;4940549;28;20831;-75
2023/01/21 05:36:13;;;;;;;5.13;3.15;;;;;;;1.11;74.88;103315.09;4942975;28;20058;-74
2023/01/21 05:38:40;;;;;;;6.45;3.35;;;;;;;1.11;74.77;103322.81;4940284;28;20055;-75
2023/01/21 05:41:07;;;;;;;6.10;3.20;;;;;;;1.11;75.24;103322.81;4939591;28;20516;-75
2023/01/21 05:43:34;;;;;;;7.53;3.67;;;;;;;1.07;74.80;103320.84;4940393;28;20052;-74
2023/01/21 05:46:00;;;;;;;7.22;3.38;;;;;;;1.09;74.90;103326.97;4938418;28;20053;-74
2023/01/21 05:48:29;;;;;;;5.18;3.55;;;;;;;1.09;74.62;103331.22;4940061;28;20603;-74
2023/01/21 05:50:57;;;;;;;7.55;3.40;;;;;;;1.07;74.45;103335.38;4939986;28;20051;-75
2023/01/21 05:53:24;;;;;;;7.55;4.28;;;;;;;1.09;74.40;103354.41;4938868;28;20091;-74
2023/01/21 05:55:53;;;;;;;8.02;3.78;;;;;;;1.08;74.28;103353.53;4942322;28;20444;-74
2023/01/21 05:58:20;;;;;;;9.13;4.10;;;;;;;1.08;74.90;103357.75;4936119;28;20052;-74
2023/01/21 06:00:47;;;;;;;9.93;4.13;;;;;;;1.06;74.12;103354.22;4937048;28;20079;-75
2023/01/21 06:03:15;;;;;;;7.63;4.20;;;;;;;1.08;74.47;103362.91;4938140;28;20051;-74
2023/01/21 06:05:42;;;;;;;9.52;3.38;;;;;;;1.08;74.54;103363.81;4938783;28;20054;-74
2023/01/21 06:08:11;;;;;;;7.95;3.38;;;;;;;1.07;74.65;103372.31;4939381;28;20048;-74
2023/01/21 06:10:38;;;;;;;8.88;3.53;;;;;;;0.94;74.16;103345.72;4938654;29;20054;-77
2023/01/21 06:13:05;;;;;;;11.00;4.30;;;;;;;1.07;75.01;103380.03;4937135;29;20079;-75
2023/01/21 06:15:32;;;;;;;9.30;5.13;;;;;;;1.06;74.23;103396.28;4937710;28;20058;-74
2023/01/21 06:18:00;;;;;;;9.85;3.90;;;;;;;1.05;74.23;103391.94;4941794;29;20052;-74
2023/01/21 06:20:29;;;;;;;7.20;4.00;;;;;;;0.96;74.50;103367.28;4940346;29;20110;-74
2023/01/21 06:22:56;;;;;;;8.27;4.22;;;;;;;1.05;74.43;103393.59;4936463;29;20485;-75
2023/01/21 06:25:24;;;;;;;7.80;4.18;;;;;;;1.04;73.89;103394.41;4941986;28;20048;-74
2023/01/21 06:27:54;;;;;;;5.78;3.38;;;;;;;1.03;74.49;103393.53;4942141;29;20047;-75
2023/01/21 06:30:21;;;;;;;6.85;4.18;;;;;;;1.03;74.08;103395.22;4940135;28;20106;-74
2023/01/21 06:32:47;;;;;;;12.65;5.05;;;;;;;1.03;74.50;103390.94;4940828;29;20481;-75
2023/01/21 06:35:14;;;;;;;6.30;3.42;;;;;;;1.03;74.29;103393.53;4940830;28;20053;-74
2023/01/21 06:37:42;;;;;;;10.05;4.28;;;;;;;1.01;74.39;103396.78;4941802;28;20707;-75
2023/01/21 06:40:10;;;;;;;6.65;4.28;;;;;;;1.02;74.41;103394.28;4940918;28;20044;-74
2023/01/21 06:42:38;;;;;;;7.93;4.75;;;;;;;1.02;73.72;103401.13;4938355;28;20114;-74
2023/01/21 06:45:06;;;;;;;7.90;3.92;;;;;;;1.02;74.18;103399.44;4937420;28;20342;-74
2023/01/21 06:47:33;;;;;;;9.77;4.47;;;;;;;1.02;74.12;103404.59;4943101;29;20055;-75
2023/01/21 06:50:00;;;;;;;8.63;5.03;;;;;;;1.01;74.56;103402.81;4935390;29;20273;-76
2023/01/21 06:52:27;;;;;;;8.85;4.80;;;;;;;1.01;74.45;103410.53;4936149;29;20551;-74
2023/01/21 06:54:54;;;;;;;7.72;4.15;;;;;;;1.02;73.62;103416.56;4942824;29;20066;-74
2023/01/21 06:57:20;;;;;;;10.90;5.40;;;;;;;1.01;74.02;103423.41;4941858;28;20063;-74
2023/01/21 06:59:49;;;;;;;11.32;4.75;;;;;;;1.02;74.61;103421.72;4941361;28;20508;-74
2023/01/21 07:02:15;;;;;;;9.52;4.65;;;;;;;0.99;74.81;103424.09;4943739;28;20050;-74
2023/01/21 07:04:43;;;;;;;8.98;4.47;;;;;;;1.00;74.49;103421.66;4944729;28;20052;-74
2023/01/21 07:07:10;;;;;;;9.15;3.92;;;;;;;0.99;74.35;103419.84;4941218;28;20082;-74
2023/01/21 07:09:37;;;;;;;8.65;4.82;;;;;;;1.00;74.04;103426.78;4940772;28;20055;-75
2023/01/21 07:12:04;;;;;;;9.15;4.28;;;;;;;0.99;74.78;103432.72;4941063;29;20055;-74
2023/01/21 07:14:31;;;;;;;6.55;3.90;;;;;;;0.98;74.13;103438.66;4942882;28;20427;-74
2023/01/21 07:16:59;;;;;;;6.78;4.43;;;;;;;0.95;74.16;103428.19;4947160;28;20053;-74
2023/01/21 07:19:26;;;;;;;8.38;4.68;;;;;;;0.97;74.80;103442.03;4941460;28;20059;-75
2023/01/21 07:21:53;;;;;;;7.30;4.57;;;;;;;0.97;74.17;103454.00;4938878;28;20974;-74
2023/01/21 07:24:20;;;;;;;8.98;4.55;;;;;;;0.96;74.58;103459.94;4942910;28;20047;-75
2023/01/21 07:26:47;;;;;;;8.45;4.70;;;;;;;0.96;73.71;103465.09;4942585;28;20048;-74
2023/01/21 07:29:14;;;;;;;10.27;4.20;;;;;;;0.94;73.49;103471.81;4938870;28;20043;-75
2023/01/21 07:31:41;;;;;;;5.63;3.45;;;;;;;0.93;74.31;103486.38;4940728;28;20094;-74
2023/01/21 07:34:09;;;;;;;8.05;5.10;;;;;;;0.92;74.37;103484.59;4944493;28;20963;-74
2023/01/21 07:36:36;;;;;;;6.78;3.83;;;;;;;0.92;74.10;103484.59;4941802;28;20051;-74
2023/01/21 07:39:03;;;;;;;8.10;4.13;;;;;;;0.91;74.06;103480.22;4942056;28;20043;-75
2023/01/21 07:41:30;;;;;;;7.93;4.78;;;;;;;0.89;74.45;103479.25;4942015;28;20051;-75
2023/01/21 07:43:56;;;;;;;8.00;4.80;;;;;;;0.92;73.97;103488.88;4943358;29;20712;-75
2023/01/21 07:46:23;;;;;;;8.00;4.60;;;;;;;0.90;73.64;103475.88;4941101;28;20051;-74
2023/01/21 07:48:51;;;;;;;8.18;4.47;;;;;;;0.90;73.97;103481.91;4938580;28;20047;-74
2023/01/21 07:51:20;;;;;;;6.32;3.55;;;;;;;0.88;74.12;103483.53;4944911;28;20047;-74
2023/01/21 07:53:47;;;;;;;7.07;3.72;;;;;;;0.88;73.41;103480.94;4940131;28;20049;-76
2023/01/21 07:56:15;;;;;;;7.65;4.18;;;;;;;0.87;74.02;103486.88;4938714;28;20049;-76
2023/01/21 07:58:41;;;;;;;8.80;4.05;;;;;;;0.85;73.31;103491.03;4945182;28;20078;-75
2023/01/21 08:01:09;;;;;;;8.32;4.30;;;;;;;0.85;74.15;103497.84;4945703;28;20055;-75
2023/01/21 08:03:36;;;;;;;12.55;5.63;;;;;;;0.84;73.49;103496.06;4943225;29;20054;-75
2023/01/21 08:06:03;;;;;;;7.15;4.03;;;;;;;0.83;74.33;103496.88;4941050;28;20054;-75
2023/01/21 08:08:32;;;;;;;10.85;4.53;;;;;;;0.81;73.94;103511.31;4926983;28;20063;-75
2023/01/21 08:10:59;;;;;;;10.00;4.57;;;;;;;0.79;73.53;103518.03;4940489;28;20054;-75
2023/01/21 08:13:26;;;;;;;7.38;4.20;;;;;;;0.80;73.80;103531.03;4939857;28;20527;-75
2023/01/21 08:15:55;;;;;;;10.80;4.35;;;;;;;0.78;73.70;103526.56;4942067;28;20396;-74
2023/01/21 08:18:23;;;;;;;5.57;3.83;;;;;;;0.79;74.29;103530.91;4941425;28;20067;-74
2023/01/21 08:20:54;;;;;;;5.90;4.25;;;;;;;0.79;73.66;103528.34;4940844;28;20235;-75
2023/01/21 08:23:21;;;;;;;7.90;5.22;;;;;;;0.78;74.15;103531.72;4939145;28;20547;-74
2023/01/21 08:25:49;;;;;;;9.90;5.20;;;;;;;0.78;74.41;103521.41;4939006;28;20476;-75
2023/01/21 08:28:16;;;;;;;9.23;5.10;;;;;;;0.77;73.95;103529.91;4939568;28;20048;-74
2023/01/21 08:30:43;;;;;;;8.48;4.30;;;;;;;0.75;73.84;103534.09;4938944;28;20054;-74
2023/01/21 08:33:10;;;;;;;11.57;4.82;;;;;;;0.76;73.85;103541.00;4941015;28;20047;-74
2023/01/21 08:35:37;;;;;;;12.95;6.35;;;;;;;0.75;74.07;103540.13;4939442;28;20409;-75
2023/01/21 08:38:04;;;;;;;9.00;4.43;;;;;;;0.75;74.28;103539.22;4941245;28;20051;-76
2023/01/21 08:40:30;;;;;;;10.02;5.05;;;;;;;0.74;74.69;103529.69;4944583;28;20050;-74
2023/01/21 08:43:00;;;;;;;9.07;4.55;;;;;;;0.75;73.97;103532.41;4939027;28;20402;-75
2023/01/21 08:45:27;;;;;;;10.85;5.05;;;;;;;0.75;74.05;103528.94;4943122;28;20054;-74
2023/01/21 08:47:54;;;;;;;7.93;5.05;;;;;;;0.74;73.86;103528.06;4939132;29;20047;-75
2023/01/21 08:50:21;;;;;;;9.73;4.72;;;;;;;0.75;74.17;103526.38;4941028;28;20461;-74
2023/01/21 08:52:52;;;;;;;10.10;6.15;;;;;;;0.75;74.04;103532.41;4940794;28;20051;-74
2023/01/21 08:55:19;;;;;;;9.35;4.40;;;;;;;0.75;74.30;103534.09;4936825;28;20058;-75
2023/01/21 08:57:47;;;;;;;6.25;3.78;;;;;;;0.75;74.59;103534.09;4942049;28;20061;-73
2023/01/21 09:00:16;;;;;;;7.05;4.38;;;;;;;0.74;74.17;103546.06;4941250;28;20047;-73
2023/01/21 09:02:43;;;;;;;6.43;4.15;;;;;;;0.73;74.78;103548.50;4938665;28;20047;-73
2023/01/21 09:05:10;;;;;;;7.80;4.75;;;;;;;0.74;74.30;103563.16;4940909;28;20487;-75
2023/01/21 09:07:37;;;;;;;5.85;4.22;;;;;;;0.73;74.63;103563.94;4936486;28;20062;-75
2023/01/21 09:10:04;;;;;;;6.55;4.22;;;;;;;0.61;74.13;103546.91;4940892;28;20423;-75
2023/01/21 09:12:31;;;;;;;10.23;5.35;;;;;;;0.59;74.08;103545.03;4934662;29;20058;-74
2023/01/21 09:14:58;;;;;;;6.85;4.43;;;;;;;0.72;74.14;103563.06;4935200;28;20051;-74
2023/01/21 09:17:27;;;;;;;7.05;4.18;;;;;;;0.72;74.05;103568.22;4940313;28;20069;-74
2023/01/21 09:19:53;;;;;;;10.57;5.72;;;;;;;0.71;74.31;103565.53;4938817;28;20161;-74
2023/01/21 09:22:20;;;;;;;9.48;5.72;;;;;;;0.73;74.32;103574.25;4943788;28;20077;-75
2023/01/21 09:24:47;;;;;;;7.72;5.00;;;;;;;0.75;73.74;103590.69;4943165;28;20496;-74
2023/01/21 09:27:14;;;;;;;7.38;4.88;;;;;;;0.73;74.26;103581.97;4939479;28;20047;-77
2023/01/21 09:29:41;;;;;;;9.30;5.15;;;;;;;0.74;74.16;103591.44;4941204;28;20436;-75
2023/01/21 09:32:08;;;;;;;8.40;5.18;;;;;;;0.75;74.10;103590.69;4937966;28;20571;-75
2023/01/21 09:34:37;;;;;;;8.73;5.57;;;;;;;0.75;74.41;103599.28;4941292;28;20047;-74
2023/01/21 09:37:04;;;;;;;9.85;5.32;;;;;;;0.76;74.55;103597.59;4940676;28;20044;-74
2023/01/21 09:39:30;;;;;;;6.75;4.22;;;;;;;0.76;73.60;103595.03;4939801;28;20044;-74
2023/01/21 09:41:58;;;;;;;6.97;4.40;;;;;;;0.77;74.16;103596.81;4936232;29;20416;-74
2023/01/21 09:44:30;;;;;;;7.65;4.75;;;;;;;0.77;74.12;103602.88;4941892;28;20054;-74
2023/01/21 09:47:01;;;;;;;10.15;4.43;;;;;;;0.76;74.55;103610.47;4935829;28;20058;-75
2023/01/21 09:49:30;;;;;;;7.32;4.93;;;;;;;0.77;74.01;103620.88;4940547;29;20061;-74
2023/01/21 09:52:13;;;;;;;9.30;5.18;;;;;;;0.77;74.36;103623.44;4942448;28;20495;-74
2023/01/21 09:54:40;;;;;;;13.10;5.10;;;;;;;0.78;74.41;103624.34;4936385;28;20144;-75
2023/01/21 09:57:28;;;;;;;8.68;5.32;;;;;;;0.70;74.29;103615.19;4940323;28;20052;-82
2023/01/21 10:00:07;;;;;;;9.00;5.60;;;;;;;0.78;73.94;103629.47;4938826;28;20044;-75
2023/01/21 10:02:41;;;;;;;13.73;6.53;;;;;;;0.79;74.51;103623.53;4943215;28;20052;-75
2023/01/21 10:05:28;;;;;;;8.15;5.70;;;;;;;0.79;73.55;103626.09;4942349;28;20039;-75
2023/01/21 10:08:04;;;;;;;11.00;5.05;;;;;;;0.79;74.85;103623.53;4939483;28;20051;-75
2023/01/21 10:10:42;;;;;;;10.45;5.53;;;;;;;0.79;74.73;103626.09;4943831;28;20047;-74
2023/01/21 10:13:31;;;;;;;9.32;5.80;;;;;;;0.80;74.61;103625.34;4940109;29;20055;-74
2023/01/21 10:16:09;;;;;;;9.02;5.95;;;;;;;0.77;73.58;103623.44;4926370;28;20480;-76
2023/01/21 10:18:39;;;;;;;11.60;6.65;;;;;;;0.78;74.50;103629.47;4946308;28;21719;-76
2023/01/21 10:21:12;;;;;;;7.05;4.88;;;;;;;0.78;74.05;103622.66;4943398;28;20060;-76
2023/01/21 10:23:45;;;;;;;5.45;4.07;;;;;;;0.78;73.89;103621.75;4944841;28;20058;-76
2023/01/21 10:26:14;;;;;;;7.90;4.43;;;;;;;0.76;73.80;103623.31;4944486;28;20043;-76
2023/01/21 10:28:43;;;;;;;8.98;5.28;;;;;;;0.75;73.72;103625.03;4944743;29;20052;-75
2023/01/21 10:31:18;;;;;;;8.45;5.00;;;;;;;0.77;74.19;103627.69;4940959;28;20039;-73
2023/01/21 10:33:45;;;;;;;6.63;4.40;;;;;;;0.74;74.15;103612.03;4946101;28;20043;-73
2023/01/21 10:36:47;;;;;;;4.63;4.00;;;;;;;0.76;73.87;103620.75;4942226;28;20142;-73
2023/01/21 10:39:27;;;;;;;9.27;4.85;;;;;;;0.77;74.30;103622.53;4940818;28;20050;-73
2023/01/21 10:42:09;;;;;;;6.10;4.45;;;;;;;0.76;74.49;103616.50;4943782;28;20433;-73
2023/01/21 10:44:44;;;;;;;8.52;4.65;;;;;;;0.76;73.62;103613.03;4940551;28;20051;-73
2023/01/21 10:47:32;;;;;;;6.50;4.47;;;;;;;0.76;73.95;103607.91;4940273;28;20055;-73
2023/01/21 10:50:07;;;;;;;5.72;4.28;;;;;;;0.74;73.82;103601.75;4940885;28;20048;-73
2023/01/21 10:52:43;;;;;;;7.20;4.55;;;;;;;0.73;73.46;103605.13;4940815;28;20056;-73
2023/01/21 10:55:22;;;;;;;6.30;3.25;;;;;;;0.73;73.76;103594.81;4941934;28;20827;-73
2023/01/21 10:57:56;;;;;;;6.45;3.83;;;;;;;0.72;73.76;103593.94;4941332;28;21227;-72
2023/01/21 11:00:25;;;;;;;8.30;4.47;;;;;;;0.73;74.23;103589.69;4947960;28;20047;-72
2023/01/21 11:02:55;;;;;;;6.80;4.55;;;;;;;0.71;73.46;103587.00;4941875;29;20050;-72
2023/01/21 11:05:25;;;;;;;8.02;4.32;;;;;;;0.72;73.66;103598.19;4939293;29;20043;-72
2023/01/21 11:07:52;;;;;;;7.03;4.90;;;;;;;0.71;74.21;103593.81;4943140;28;20052;-72
2023/01/21 11:10:23;;;;;;;9.15;4.55;;;;;;;0.71;73.92;103601.53;4940184;28;20043;-73
2023/01/21 11:12:50;;;;;;;4.93;3.47;;;;;;;0.70;74.19;103610.06;4938210;28;20050;-73
2023/01/21 11:15:19;;;;;;;4.80;3.35;;;;;;;0.68;73.68;103604.78;4941686;28;20047;-73
2023/01/21 11:17:48;;;;;;;5.00;3.38;;;;;;;0.60;74.26;103600.84;4942295;28;20049;-72
2023/01/21 11:20:22;;;;;;;3.17;2.53;;;;;;;0.65;73.35;103618.38;4943556;28;20059;-71
2023/01/21 11:22:50;;;;;;;4.80;3.17;;;;;;;0.62;74.13;103610.41;4941491;29;20051;-72
2023/01/21 11:25:37;;;;;;;5.18;3.65;;;;;;;0.63;73.64;103624.19;4938649;28;20771;-71
2023/01/21 11:28:04;;;;;;;3.95;3.28;;;;;;;0.62;73.97;103624.97;4938080;28;20540;-73
2023/01/21 11:30:34;;;;;;;6.57;4.40;;;;;;;0.62;73.72;103625.84;4943828;28;20055;-74
2023/01/21 11:33:24;;;;;;;5.40;3.63;;;;;;;0.62;74.03;103623.28;4941314;28;20048;-73
2023/01/21 11:35:53;;;;;;;9.07;4.80;;;;;;;0.62;73.16;103617.25;4940874;28;20055;-72
2023/01/21 11:38:25;;;;;;;6.35;4.38;;;;;;;0.62;73.54;103622.38;4945731;28;20051;-74
2023/01/21 11:41:06;;;;;;;4.90;3.33;;;;;;;0.62;74.01;103617.25;4937603;28;20503;-74
2023/01/21 11:43:36;;;;;;;4.20;3.03;;;;;;;0.60;73.88;103617.16;4940489;28;20054;-74
2023/01/21 11:46:26;;;;;;;4.35;3.42;;;;;;;0.61;74.00;103615.47;4943637;28;20047;-74
2023/01/21 11:48:54;;;;;;;7.28;3.20;;;;;;;0.60;73.79;103617.16;4941189;28;20077;-74